Time;durP1;ratioP1;P1;durP2;ratioP2;P2;SDS_P1;SDS_P2;PMS_P1;PMS_P2;Temp;Humidity;BMP_temperature;BMP_pressure;BME280_temperature;BME280_humidity;BME280_pressure;Samples;Min_cycle;Max_cycle;Signal;HPM_P1;HPM_P2
2023/09/08 00:01:40;;;;;;;;;;;;;;;;;;5081430;28;4753;-70
2023/09/08 00:04:06;;;;;;;;;;;;;;;;;;5093151;28;5260;-70
2023/09/08 00:06:31;;;;;;;;;;;;;;;;;;5096828;28;4502;-70
2023/09/08 00:08:56;;;;;;;;;;;;;;;;;;5098351;28;5044;-70
2023/09/08 00:11:21;;;;;;;;;;;;;;;;;;5091397;28;5084;-71
2023/09/08 00:13:47;;;;;;;;;;;;;;;;;;5100243;28;1253;-70
2023/09/08 00:16:12;;;;;;;;;;;;;;;;;;5093318;28;4824;-70
2023/09/08 00:18:37;;;;;;;;;;;;;;;;;;5096753;28;5109;-70
2023/09/08 00:21:02;;;;;;;;;;;;;;;;;;5083601;28;5296;-70
2023/09/08 00:23:28;;;;;;;;;;;;;;;;;;5093055;28;4774;-71
2023/09/08 00:25:53;;;;;;;;;;;;;;;;;;5089582;28;1295;-70
2023/09/08 00:28:18;;;;;;;;;;;;;;;;;;5091432;28;5227;-70
2023/09/08 00:30:44;;;;;;;;;;;;;;;;;;5092652;28;4485;-69
2023/09/08 00:33:11;;;;;;;;;;;;;;;;;;5072815;28;5033;-69
2023/09/08 00:35:36;;;;;;;;;;;;;;;;;;5100847;28;4487;-70
2023/09/08 00:38:02;;;;;;;;;;;;;;;;;;5096365;28;1555;-70
2023/09/08 00:40:27;;;;;;;;;;;;;;;;;;5089562;28;5060;-70
2023/09/08 00:42:53;;;;;;;;;;;;;;;;;;5096622;28;5008;-71
2023/09/08 00:45:18;;;;;;;;;;;;;;;;;;5099473;28;4669;-70
2023/09/08 00:47:43;;;;;;;;;;;;;;;;;;5092796;28;4965;-70
2023/09/08 00:50:09;;;;;;;;;;;;;;;;;;5070004;28;2126;-71
2023/09/08 00:52:34;;;;;;;;;;;;;;;;;;5080316;28;4811;-69
2023/09/08 00:54:59;;;;;;;;;;;;;;;;;;5073810;28;5157;-70
2023/09/08 00:57:25;;;;;;;;;;;;;;;;;;5099458;28;5109;-70
2023/09/08 00:59:50;;;;;;;;;;;;;;;;;;5086326;28;4730;-70
2023/09/08 01:02:15;;;;;;;;;;;;;;;;;;5091767;28;1116;-70
2023/09/08 01:04:41;;;;;;;;;;;;;;;;;;5099211;28;5008;-70
2023/09/08 01:07:07;;;;;;;;;;;;;;;;;;5094175;28;4578;-70
2023/09/08 01:09:32;;;;;;;;;;;;;;;;;;5087835;28;5022;-69
2023/09/08 01:12:01;;;;;;;;;;;;;;;;;;5080461;28;5095;-70
2023/09/08 01:14:27;;;;;;;;;;;;;;;;;;5100908;28;4761;-70
2023/09/08 01:16:52;;;;;;;;;;;;;;;;;;5081091;28;1086;-70
2023/09/08 01:19:17;;;;;;;;;;;;;;;;;;5096956;28;5257;-70
2023/09/08 01:21:49;;;;;;;;;;;;;;;;;;5118944;27;5157;-70
2023/09/08 01:24:29;;;;;;;;;;;;;;;;;;5102994;28;5088;-69
2023/09/08 01:26:54;;;;;;;;;;;;;;;;;;5089395;28;5270;-71
2023/09/08 01:29:20;;;;;;;;;;;;;;;;;;5093847;28;5059;-70
2023/09/08 01:31:45;;;;;;;;;;;;;;;;;;5081090;28;4497;-69
2023/09/08 01:34:11;;;;;;;;;;;;;;;;;;5097535;28;4838;-69
2023/09/08 01:36:36;;;;;;;;;;;;;;;;;;5096024;28;5217;-69
2023/09/08 01:39:02;;;;;;;;;;;;;;;;;;5088750;28;5019;-70
2023/09/08 01:41:27;;;;;;;;;;;;;;;;;;5081694;28;4978;-71
2023/09/08 01:43:52;;;;;;;;;;;;;;;;;;5091142;28;3344;-71
2023/09/08 01:46:17;;;;;;;;;;;;;;;;;;5096678;28;4428;-71
2023/09/08 01:48:43;;;;;;;;;;;;;;;;;;5098898;28;4456;-71
2023/09/08 01:51:08;;;;;;;;;;;;;;;;;;5094923;28;5059;-70
2023/09/08 01:53:34;;;;;;;;;;;;;;;;;;5072798;28;4971;-72
2023/09/08 01:55:59;;;;;;;;;;;;;;;;;;5096895;28;1332;-70
2023/09/08 01:58:24;;;;;;;;;;;;;;;;;;5072411;28;4814;-71
2023/09/08 02:00:51;;;;;;;;;;;;;;;;;;5094158;28;4942;-70
2023/09/08 02:03:16;;;;;;;;;;;;;;;;;;5116730;27;5124;-70
2023/09/08 02:05:41;;;;;;;;;;;;;;;;;;5097605;28;5160;-70
2023/09/08 02:08:06;;;;;;;;;;;;;;;;;;5089734;28;1352;-70
2023/09/08 02:10:32;;;;;;;;;;;;;;;;;;5096949;28;5046;-70
2023/09/08 02:12:57;;;;;;;;;;;;;;;;;;5097007;28;4489;-70
2023/09/08 02:15:22;;;;;;;;;;;;;;;;;;5097599;28;4442;-72
2023/09/08 02:17:49;;;;;;;;;;;;;;;;;;5097994;28;5033;-72
2023/09/08 02:20:14;;;;;;;;;;;;;;;;;;5094795;28;1913;-70
2023/09/08 02:22:39;;;;;;;;;;;;;;;;;;5089677;28;5098;-70
2023/09/08 02:25:05;;;;;;;;;;;;;;;;;;5076887;28;5050;-71
2023/09/08 02:27:30;;;;;;;;;;;;;;;;;;5096544;28;4481;-71
2023/09/08 02:29:55;;;;;;;;;;;;;;;;;;5094879;28;4975;-71
2023/09/08 02:32:21;;;;;;;;;;;;;;;;;;5088481;28;3375;-70
2023/09/08 02:34:48;;;;;;;;;;;;;;;;;;5094509;28;4998;-71
2023/09/08 02:37:13;;;;;;;;;;;;;;;;;;5092005;28;4671;-73
2023/09/08 02:39:38;;;;;;;;;;;;;;;;;;5088716;28;4668;-72
2023/09/08 02:42:03;;;;;;;;;;;;;;;;;;5097320;28;5072;-72
2023/09/08 02:44:29;;;;;;;;;;;;;;;;;;5096620;28;4479;-71
2023/09/08 02:46:54;;;;;;;;;;;;;;;;;;5075978;28;3340;-70
2023/09/08 02:49:20;;;;;;;;;;;;;;;;;;5091933;28;4917;-70
2023/09/08 02:51:45;;;;;;;;;;;;;;;;;;5089643;28;4978;-71
2023/09/08 02:54:10;;;;;;;;;;;;;;;;;;5099621;28;4490;-70
2023/09/08 02:56:35;;;;;;;;;;;;;;;;;;5102046;28;5042;-71
2023/09/08 02:59:01;;;;;;;;;;;;;;;;;;5100284;28;2080;-71
2023/09/08 03:01:26;;;;;;;;;;;;;;;;;;5097232;28;4581;-71
2023/09/08 03:03:51;;;;;;;;;;;;;;;;;;5107754;28;5029;-69
2023/09/08 03:06:18;;;;;;;;;;;;;;;;;;5102583;28;5019;-73
2023/09/08 03:08:43;;;;;;;;;;;;;;;;;;5088886;28;4897;-71
2023/09/08 03:11:09;;;;;;;;;;;;;;;;;;5099240;28;1128;-72
2023/09/08 03:13:34;;;;;;;;;;;;;;;;;;5086430;28;4963;-72
2023/09/08 03:16:04;;;;;;;;;;;;;;;;;;5081031;28;4467;-71
2023/09/08 03:18:29;;;;;;;;;;;;;;;;;;5098736;28;5002;-73
2023/09/08 03:20:54;;;;;;;;;;;;;;;;;;5099574;28;4900;-72
2023/09/08 03:23:19;;;;;;;;;;;;;;;;;;5094570;28;1135;-71
2023/09/08 03:25:45;;;;;;;;;;;;;;;;;;5097057;28;4395;-71
2023/09/08 03:28:10;;;;;;;;;;;;;;;;;;5100322;28;5001;-72
2023/09/08 03:30:35;;;;;;;;;;;;;;;;;;5095255;28;5245;-71
2023/09/08 03:33:00;;;;;;;;;;;;;;;;;;5094582;28;4966;-69
2023/09/08 03:35:26;;;;;;;;;;;;;;;;;;5100909;28;4450;-71
2023/09/08 03:37:51;;;;;;;;;;;;;;;;;;5081588;28;3280;-70
2023/09/08 03:40:16;;;;;;;;;;;;;;;;;;5103363;28;4996;-71
2023/09/08 03:42:42;;;;;;;;;;;;;;;;;;5103973;28;4641;-71
2023/09/08 03:45:08;;;;;;;;;;;;;;;;;;5098409;28;4607;-70
2023/09/08 03:47:33;;;;;;;;;;;;;;;;;;5096636;28;4981;-70
2023/09/08 03:49:58;;;;;;;;;;;;;;;;;;5078063;28;1222;-69
2023/09/08 03:52:23;;;;;;;;;;;;;;;;;;5079185;28;5079;-70
2023/09/08 03:54:49;;;;;;;;;;;;;;;;;;5095786;28;4676;-69
2023/09/08 03:57:14;;;;;;;;;;;;;;;;;;5098415;28;4772;-70
2023/09/08 03:59:39;;;;;;;;;;;;;;;;;;5068663;28;4721;-70
2023/09/08 04:02:05;;;;;;;;;;;;;;;;;;5065071;28;3172;-70
2023/09/08 04:04:30;;;;;;;;;;;;;;;;;;5070616;28;4982;-70
2023/09/08 04:06:55;;;;;;;;;;;;;;;;;;5069564;28;4464;-72
2023/09/08 04:09:20;;;;;;;;;;;;;;;;;;5070360;28;5277;-72
2023/09/08 04:11:46;;;;;;;;;;;;;;;;;;5069758;28;5060;-71
2023/09/08 04:14:11;;;;;;;;;;;;;;;;;;5069753;28;1160;-71
2023/09/08 04:16:36;;;;;;;;;;;;;;;;;;5067778;28;4619;-71
2023/09/08 04:19:01;;;;;;;;;;;;;;;;;;5071537;28;4848;-71
2023/09/08 04:21:27;;;;;;;;;;;;;;;;;;5066950;28;4495;-73
2023/09/08 04:23:52;;;;;;;;;;;;;;;;;;5069330;28;4656;-71
2023/09/08 04:26:17;;;;;;;;;;;;;;;;;;5068939;28;2068;-72
2023/09/08 04:28:42;;;;;;;;;;;;;;;;;;5065178;28;5176;-70
2023/09/08 04:31:08;;;;;;;;;;;;;;;;;;5063546;28;5056;-70
2023/09/08 04:33:33;;;;;;;;;;;;;;;;;;5072413;28;5026;-70
2023/09/08 04:35:58;;;;;;;;;;;;;;;;;;5069432;28;4452;-71
2023/09/08 04:38:23;;;;;;;;;;;;;;;;;;5067944;28;5014;-71
2023/09/08 04:40:49;;;;;;;;;;;;;;;;;;5072488;28;1970;-71
2023/09/08 04:43:15;;;;;;;;;;;;;;;;;;5066804;28;4848;-70
2023/09/08 04:45:40;;;;;;;;;;;;;;;;;;5065892;28;5419;-70
2023/09/08 04:48:05;;;;;;;;;;;;;;;;;;5069142;28;4954;-70
2023/09/08 04:50:31;;;;;;;;;;;;;;;;;;5068697;28;5114;-71
2023/09/08 04:52:56;;;;;;;;;;;;;;;;;;5068822;28;2415;-70
2023/09/08 04:55:21;;;;;;;;;;;;;;;;;;5069604;28;4964;-71
2023/09/08 04:57:46;;;;;;;;;;;;;;;;;;5066627;28;5149;-71
2023/09/08 05:00:12;;;;;;;;;;;;;;;;;;5061662;28;5085;-70
2023/09/08 05:02:37;;;;;;;;;;;;;;;;;;5048564;28;4554;-71
2023/09/08 05:05:03;;;;;;;;;;;;;;;;;;5050629;28;3445;-70
2023/09/08 05:07:28;;;;;;;;;;;;;;;;;;5047964;28;4604;-71
2023/09/08 05:09:53;;;;;;;;;;;;;;;;;;5050291;28;5038;-71
2023/09/08 05:12:18;;;;;;;;;;;;;;;;;;5052063;28;4556;-70
2023/09/08 05:14:44;;;;;;;;;;;;;;;;;;5064774;28;5166;-71
2023/09/08 05:17:09;;;;;;;;;;;;;;;;;;5048583;28;1074;-69
2023/09/08 05:19:34;;;;;;;;;;;;;;;;;;5066203;28;4526;-70
2023/09/08 05:21:59;;;;;;;;;;;;;;;;;;5066907;28;4434;-72
2023/09/08 05:24:26;;;;;;;;;;;;;;;;;;5067646;28;4483;-71
2023/09/08 05:26:51;;;;;;;;;;;;;;;;;;5067032;28;5069;-70
2023/09/08 05:29:17;;;;;;;;;;;;;;;;;;5069078;28;5166;-72
2023/09/08 05:31:42;;;;;;;;;;;;;;;;;;5066869;28;4399;-71
2023/09/08 05:34:08;;;;;;;;;;;;;;;;;;5053416;28;4586;-70
2023/09/08 05:36:35;;;;;;;;;;;;;;;;;;5053989;28;4582;-71
2023/09/08 05:39:02;;;;;;;;;;;;;;;;;;5079595;28;4998;-70
2023/09/08 05:41:28;;;;;;;;;;;;;;;;;;5079029;28;5506;-71
2023/09/08 05:43:53;;;;;;;;;;;;;;;;;;5082645;28;3385;-71
2023/09/08 05:46:18;;;;;;;;;;;;;;;;;;5079470;28;5158;-71
2023/09/08 05:48:44;;;;;;;;;;;;;;;;;;5085200;28;5082;-69
2023/09/08 05:51:09;;;;;;;;;;;;;;;;;;5085949;28;4582;-58
2023/09/08 05:53:35;;;;;;;;;;;;;;;;;;5080958;28;4659;-53
2023/09/08 05:56:01;;;;;;;;;;;;;;;;;;5087302;28;3238;-53
2023/09/08 05:58:27;;;;;;;;;;;;;;;;;;5074968;28;4943;-55
2023/09/08 06:00:53;;;;;;;;;;;;;;;;;;5070223;28;4850;-53
2023/09/08 06:03:18;;;;;;;;;;;;;;;;;;5080343;28;4966;-56
2023/09/08 06:05:44;;;;;;;;;;;;;;;;;;5075045;28;5163;-55
2023/09/08 06:08:09;;;;;;;;;;;;;;;;;;5068634;28;1488;-55
2023/09/08 06:10:34;;;;;;;;;;;;;;;;;;5070172;28;4999;-55
2023/09/08 06:13:01;;;;;;;;;;;;;;;;;;5070138;28;4655;-54
2023/09/08 06:15:26;;;;;;;;;;;;;;;;;;5070619;28;5164;-58
2023/09/08 06:17:51;;;;;;;;;;;;;;;;;;5066036;28;5009;-53
2023/09/08 06:20:17;;;;;;;;;;;;;;;;;;5074852;28;3303;-49
2023/09/08 06:22:42;;;;;;;;;;;;;;;;;;5065571;28;5105;-55
2023/09/08 06:25:07;;;;;;;;;;;;;;;;;;5069689;28;5221;-53
2023/09/08 06:27:33;;;;;;;;;;;;;;;;;;5074855;28;5107;-53
2023/09/08 06:29:58;;;;;;;;;;;;;;;;;;5049582;28;5176;-54
2023/09/08 06:32:23;;;;;;;;;;;;;;;;;;5053075;28;5221;-53
2023/09/08 06:34:48;;;;;;;;;;;;;;;;;;5069567;28;3341;-55
2023/09/08 06:37:14;;;;;;;;;;;;;;;;;;5069515;28;5336;-55
2023/09/08 06:39:39;;;;;;;;;;;;;;;;;;5050121;28;4485;-54
2023/09/08 06:42:04;;;;;;;;;;;;;;;;;;5064746;28;4983;-56
2023/09/08 06:44:30;;;;;;;;;;;;;;;;;;5074468;28;4699;-56
2023/09/08 06:46:55;;;;;;;;;;;;;;;;;;5077061;28;3624;-57
2023/09/08 06:49:21;;;;;;;;;;;;;;;;;;5072954;28;4568;-56
2023/09/08 06:51:48;;;;;;;;;;;;;;;;;;5075543;28;5184;-52
2023/09/08 06:54:13;;;;;;;;;;;;;;;;;;5077574;28;5130;-53
2023/09/08 06:56:39;;;;;;;;;;;;;;;;;;5072543;28;4695;-54
2023/09/08 06:59:04;;;;;;;;;;;;;;;;;;5051047;28;3175;-55
2023/09/08 07:01:29;;;;;;;;;;;;;;;;;;5046412;28;4694;-56
2023/09/08 07:03:54;;;;;;;;;;;;;;;;;;5040837;28;6023;-56
2023/09/08 07:06:22;;;;;;;;;;;;;;;;;;5056682;28;4633;-56
2023/09/08 07:08:49;;;;;;;;;;;;;;;;;;5060935;28;4973;-52
2023/09/08 07:11:14;;;;;;;;;;;;;;;;;;5056394;28;1548;-52
2023/09/08 07:13:40;;;;;;;;;;;;;;;;;;5060748;28;4595;-52
2023/09/08 07:16:05;;;;;;;;;;;;;;;;;;5063171;28;5078;-56
2023/09/08 07:18:34;;;;;;;;;;;;;;;;;;5061209;28;5092;-52
2023/09/08 07:20:59;;;;;;;;;;;;;;;;;;5065789;28;5172;-54
2023/09/08 07:23:25;;;;;;;;;;;;;;;;;;5056240;28;5157;-54
2023/09/08 07:25:50;;;;;;;;;;;;;;;;;;5071196;28;3288;-51
2023/09/08 07:28:16;;;;;;;;;;;;;;;;;;5074176;28;5034;-56
2023/09/08 07:30:41;;;;;;;;;;;;;;;;;;5070366;28;5295;-59
2023/09/08 07:33:06;;;;;;;;;;;;;;;;;;5057727;28;4946;-59
2023/09/08 07:35:32;;;;;;;;;;;;;;;;;;5070169;28;5111;-56
2023/09/08 07:37:57;;;;;;;;;;;;;;;;;;5067151;28;3237;-56
2023/09/08 07:40:22;;;;;;;;;;;;;;;;;;5063376;28;4506;-58
2023/09/08 07:42:47;;;;;;;;;;;;;;;;;;5074178;28;5136;-60
2023/09/08 07:45:13;;;;;;;;;;;;;;;;;;5080222;28;4519;-56
2023/09/08 07:47:38;;;;;;;;;;;;;;;;;;5056426;28;5370;-57
2023/09/08 07:50:20;;;;;;;;;;;;;;;;;;5077270;28;1278;-55
2023/09/08 07:52:45;;;;;;;;;;;;;;;;;;5080135;28;4826;-56
2023/09/08 07:55:10;;;;;;;;;;;;;;;;;;5072660;28;4443;-56
2023/09/08 07:57:36;;;;;;;;;;;;;;;;;;5065820;28;4985;-56
2023/09/08 08:00:01;;;;;;;;;;;;;;;;;;5068792;28;5180;-59
2023/09/08 08:02:26;;;;;;;;;;;;;;;;;;5068953;28;5060;-57
2023/09/08 08:04:52;;;;;;;;;;;;;;;;;;5067707;28;1171;-58
2023/09/08 08:07:17;;;;;;;;;;;;;;;;;;5069448;28;4945;-58
2023/09/08 08:09:42;;;;;;;;;;;;;;;;;;5068975;28;4875;-56
2023/09/08 08:12:07;;;;;;;;;;;;;;;;;;5069127;28;4477;-54
2023/09/08 08:14:33;;;;;;;;;;;;;;;;;;5047495;28;5040;-57
2023/09/08 08:16:58;;;;;;;;;;;;;;;;;;5069711;28;1561;-57
2023/09/08 08:19:23;;;;;;;;;;;;;;;;;;5068951;28;4847;-58
2023/09/08 08:21:48;;;;;;;;;;;;;;;;;;5067078;28;5049;-56
2023/09/08 08:24:14;;;;;;;;;;;;;;;;;;5061085;28;4994;-55
2023/09/08 08:26:39;;;;;;;;;;;;;;;;;;5062586;28;5157;-56
2023/09/08 08:29:04;;;;;;;;;;;;;;;;;;5062300;28;5109;-60
2023/09/08 08:31:29;;;;;;;;;;;;;;;;;;5060517;28;4488;-59
2023/09/08 08:33:55;;;;;;;;;;;;;;;;;;5068086;28;5827;-59
2023/09/08 08:36:20;;;;;;;;;;;;;;;;;;5064899;28;5101;-53
2023/09/08 08:38:45;;;;;;;;;;;;;;;;;;5061763;28;4991;-56
2023/09/08 08:41:11;;;;;;;;;;;;;;;;;;5065467;28;3429;-55
2023/09/08 08:43:36;;;;;;;;;;;;;;;;;;5062793;28;5074;-55
2023/09/08 08:46:02;;;;;;;;;;;;;;;;;;5067775;28;5081;-56
2023/09/08 08:48:27;;;;;;;;;;;;;;;;;;5050801;28;5043;-60
2023/09/08 08:50:53;;;;;;;;;;;;;;;;;;5058847;28;4872;-58
2023/09/08 08:53:18;;;;;;;;;;;;;;;;;;5068694;28;1175;-60
2023/09/08 08:55:43;;;;;;;;;;;;;;;;;;5072657;28;4490;-57
2023/09/08 08:58:08;;;;;;;;;;;;;;;;;;5059150;28;4984;-57
2023/09/08 09:00:35;;;;;;;;;;;;;;;;;;5060667;28;4710;-54
2023/09/08 09:03:00;;;;;;;;;;;;;;;;;;5050655;28;5111;-54
2023/09/08 09:05:25;;;;;;;;;;;;;;;;;;5055295;28;4563;-57
2023/09/08 09:07:51;;;;;;;;;;;;;;;;;;5042284;28;3270;-55
2023/09/08 09:10:16;;;;;;;;;;;;;;;;;;5040964;28;4728;-56
2023/09/08 09:12:41;;;;;;;;;;;;;;;;;;5056786;28;5123;-56
2023/09/08 09:15:10;;;;;;;;;;;;;;;;;;5027417;28;4484;-59
2023/09/08 09:17:36;;;;;;;;;;;;;;;;;;5043788;28;5078;-72
2023/09/08 09:20:17;;;;;;;;;;;;;;;;;;5042457;28;3273;-72
2023/09/08 09:22:44;;;;;;;;;;;;;;;;;;5061231;28;4989;-69
2023/09/08 09:25:10;;;;;;;;;;;;;;;;;;5047072;28;5196;-72
2023/09/08 09:27:37;;;;;;;;;;;;;;;;;;5064837;28;5216;-68
2023/09/08 09:30:03;;;;;;;;;;;;;;;;;;5061215;28;4956;-67
2023/09/08 09:32:29;;;;;;;;;;;;;;;;;;5062366;28;5068;-66
2023/09/08 09:34:57;;;;;;;;;;;;;;;;;;5063180;28;3299;-72
2023/09/08 09:37:22;;;;;;;;;;;;;;;;;;5060483;28;4672;-68
2023/09/08 09:39:50;;;;;;;;;;;;;;;;;;5059820;28;5200;-69
2023/09/08 09:42:16;;;;;;;;;;;;;;;;;;5057309;28;4603;-71
2023/09/08 09:44:41;;;;;;;;;;;;;;;;;;5061141;28;4602;-76
2023/09/08 09:47:08;;;;;;;;;;;;;;;;;;5060230;28;3288;-70
2023/09/08 09:49:35;;;;;;;;;;;;;;;;;;5041613;28;5070;-71
2023/09/08 09:52:00;;;;;;;;;;;;;;;;;;5041174;28;5043;-67
2023/09/08 09:54:25;;;;;;;;;;;;;;;;;;5060218;28;4846;-67
2023/09/08 09:56:51;;;;;;;;;;;;;;;;;;5063360;28;5102;-68
2023/09/08 09:59:17;;;;;;;;;;;;;;;;;;5044489;28;3389;-68
2023/09/08 10:01:43;;;;;;;;;;;;;;;;;;5040076;28;5077;-67
2023/09/08 10:04:08;;;;;;;;;;;;;;;;;;5063930;28;5147;-70
2023/09/08 10:06:35;;;;;;;;;;;;;;;;;;5061609;28;4979;-72
2023/09/08 10:09:04;;;;;;;;;;;;;;;;;;5063408;28;5265;-69
2023/09/08 10:11:32;;;;;;;;;;;;;;;;;;5057631;28;5108;-67
2023/09/08 10:13:58;;;;;;;;;;;;;;;;;;5044751;28;3303;-72
2023/09/08 10:16:23;;;;;;;;;;;;;;;;;;5062313;28;4731;-72
2023/09/08 10:18:48;;;;;;;;;;;;;;;;;;5045550;28;4600;-68
2023/09/08 10:21:14;;;;;;;;;;;;;;;;;;5058960;28;5423;-68
2023/09/08 10:23:52;;;;;;;;;;;;;;;;;;5055505;28;4983;-67
2023/09/08 10:26:18;;;;;;;;;;;;;;;;;;5046720;28;3353;-72
2023/09/08 10:28:43;;;;;;;;;;;;;;;;;;5057127;28;4827;-69
2023/09/08 10:31:08;;;;;;;;;;;;;;;;;;5077456;28;4555;-69
2023/09/08 10:33:34;;;;;;;;;;;;;;;;;;5078470;28;5125;-66
2023/09/08 10:35:59;;;;;;;;;;;;;;;;;;5057214;28;5210;-69
2023/09/08 10:38:27;;;;;;;;;;;;;;;;;;5057279;28;5020;-70
2023/09/08 10:40:53;;;;;;;;;;;;;;;;;;5063468;28;3258;-68
2023/09/08 10:43:18;;;;;;;;;;;;;;;;;;5060025;28;4682;-70
2023/09/08 10:45:45;;;;;;;;;;;;;;;;;;5063040;28;5124;-68
2023/09/08 10:48:10;;;;;;;;;;;;;;;;;;5059986;28;5225;-67
2023/09/08 10:50:38;;;;;;;;;;;;;;;;;;5058121;28;4696;-70
2023/09/08 10:53:07;;;;;;;;;;;;;;;;;;5063263;28;3390;-69
2023/09/08 10:55:43;;;;;;;;;;;;;;;;;;5056263;28;4626;-67
2023/09/08 10:58:11;;;;;;;;;;;;;;;;;;5078307;28;4494;-71
2023/09/08 11:00:43;;;;;;;;;;;;;;;;;;5063249;28;5116;-69
2023/09/08 11:03:08;;;;;;;;;;;;;;;;;;5047373;28;5112;-68
2023/09/08 11:05:34;;;;;;;;;;;;;;;;;;5055002;28;5076;-68
2023/09/08 11:07:59;;;;;;;;;;;;;;;;;;5051244;28;3178;-71
2023/09/08 11:10:25;;;;;;;;;;;;;;;;;;5049135;28;4501;-58
2023/09/08 11:12:51;;;;;;;;;;;;;;;;;;5051310;28;5014;-64
2023/09/08 11:15:16;;;;;;;;;;;;;;;;;;5045662;28;4984;-61
2023/09/08 11:17:42;;;;;;;;;;;;;;;;;;5054952;28;5530;-61
2023/09/08 11:20:08;;;;;;;;;;;;;;;;;;5054003;28;3064;-60
2023/09/08 11:22:34;;;;;;;;;;;;;;;;;;5051313;28;5038;-71
2023/09/08 11:25:00;;;;;;;;;;;;;;;;;;5037062;28;5100;-72
2023/09/08 11:27:25;;;;;;;;;;;;;;;;;;5055705;28;5146;-71
2023/09/08 11:29:51;;;;;;;;;;;;;;;;;;5055213;28;4984;-68
2023/09/08 11:32:16;;;;;;;;;;;;;;;;;;5053059;28;3227;-73
2023/09/08 11:34:41;;;;;;;;;;;;;;;;;;5051672;28;5084;-72
2023/09/08 11:37:14;;;;;;;;;;;;;;;;;;5053454;28;5008;-68
2023/09/08 11:39:40;;;;;;;;;;;;;;;;;;5054139;28;4440;-66
2023/09/08 11:42:05;;;;;;;;;;;;;;;;;;5053869;28;4420;-67
2023/09/08 11:44:31;;;;;;;;;;;;;;;;;;5037712;28;5035;-67
2023/09/08 11:46:57;;;;;;;;;;;;;;;;;;5034318;28;3116;-67
2023/09/08 11:49:23;;;;;;;;;;;;;;;;;;5054214;28;4979;-67
2023/09/08 11:51:49;;;;;;;;;;;;;;;;;;5051407;28;5071;-68
2023/09/08 11:54:14;;;;;;;;;;;;;;;;;;5056313;28;5154;-66
2023/09/08 11:56:40;;;;;;;;;;;;;;;;;;5052824;28;5043;-69
2023/09/08 11:59:05;;;;;;;;;;;;;;;;;;5055480;28;3252;-71
2023/09/08 12:01:31;;;;;;;;;;;;;;;;;;5058848;28;5136;-68
2023/09/08 12:03:57;;;;;;;;;;;;;;;;;;5065899;28;4621;-68
2023/09/08 12:06:26;;;;;;;;;;;;;;;;;;5068376;28;4638;-70
2023/09/08 12:08:52;;;;;;;;;;;;;;;;;;5046944;28;4559;-67
2023/09/08 12:11:17;;;;;;;;;;;;;;;;;;5046526;28;3327;-69
2023/09/08 12:13:42;;;;;;;;;;;;;;;;;;5049909;28;5038;-72
2023/09/08 12:16:18;;;;;;;;;;;;;;;;;;5064619;28;5092;-70
2023/09/08 12:18:45;;;;;;;;;;;;;;;;;;5056082;28;4802;-70
2023/09/08 12:21:10;;;;;;;;;;;;;;;;;;5061804;28;5095;-75
2023/09/08 12:23:35;;;;;;;;;;;;;;;;;;5054173;28;4676;-72
2023/09/08 12:26:00;;;;;;;;;;;;;;;;;;5061628;28;3238;-72
2023/09/08 12:28:29;;;;;;;;;;;;;;;;;;5060696;28;5061;-72
2023/09/08 12:30:55;;;;;;;;;;;;;;;;;;5060134;28;5038;-77
2023/09/08 12:33:20;;;;;;;;;;;;;;;;;;5061406;28;5073;-75
2023/09/08 12:35:45;;;;;;;;;;;;;;;;;;5058699;28;5007;-72
2023/09/08 12:38:11;;;;;;;;;;;;;;;;;;5065852;28;3330;-71
2023/09/08 12:40:36;;;;;;;;;;;;;;;;;;5065082;28;5203;-72
2023/09/08 12:43:02;;;;;;;;;;;;;;;;;;5065591;28;4467;-75
2023/09/08 12:45:27;;;;;;;;;;;;;;;;;;5062383;28;4908;-72
2023/09/08 12:47:54;;;;;;;;;;;;;;;;;;5064939;28;5124;-75
2023/09/08 12:50:20;;;;;;;;;;;;;;;;;;5063719;28;3322;-70
2023/09/08 12:52:45;;;;;;;;;;;;;;;;;;5061286;28;5327;-68
2023/09/08 12:55:11;;;;;;;;;;;;;;;;;;5063242;28;4649;-72
2023/09/08 12:57:36;;;;;;;;;;;;;;;;;;5060275;28;5126;-69
2023/09/08 13:00:02;;;;;;;;;;;;;;;;;;5064786;28;5082;-61
2023/09/08 13:02:27;;;;;;;;;;;;;;;;;;5060110;28;4962;-61
2023/09/08 13:04:52;;;;;;;;;;;;;;;;;;5063510;28;2144;-61
2023/09/08 13:07:18;;;;;;;;;;;;;;;;;;5064593;28;4892;-70
2023/09/08 13:09:43;;;;;;;;;;;;;;;;;;5064180;28;5066;-60
2023/09/08 13:12:10;;;;;;;;;;;;;;;;;;5046610;28;5012;-61
2023/09/08 13:14:35;;;;;;;;;;;;;;;;;;5062205;28;4548;-59
2023/09/08 13:17:00;;;;;;;;;;;;;;;;;;5060841;28;3290;-61
2023/09/08 13:19:26;;;;;;;;;;;;;;;;;;5061781;28;4494;-61
2023/09/08 13:21:51;;;;;;;;;;;;;;;;;;5061662;28;5110;-61
2023/09/08 13:24:16;;;;;;;;;;;;;;;;;;5055653;28;4697;-61
2023/09/08 13:26:41;;;;;;;;;;;;;;;;;;5062465;28;5081;-60
2023/09/08 13:29:07;;;;;;;;;;;;;;;;;;5056336;28;5106;-62
2023/09/08 13:31:32;;;;;;;;;;;;;;;;;;5060464;28;4708;-63
2023/09/08 13:33:57;;;;;;;;;;;;;;;;;;5059885;28;5173;-63
2023/09/08 13:36:22;;;;;;;;;;;;;;;;;;5063337;28;5054;-61
2023/09/08 13:38:47;;;;;;;;;;;;;;;;;;5060156;28;5042;-62
2023/09/08 13:41:13;;;;;;;;;;;;;;;;;;5066087;28;1914;-63
2023/09/08 13:43:38;;;;;;;;;;;;;;;;;;5060469;28;5107;-62
2023/09/08 13:46:03;;;;;;;;;;;;;;;;;;5060348;28;4953;-59
2023/09/08 13:48:29;;;;;;;;;;;;;;;;;;5056756;28;4682;-61
2023/09/08 13:50:54;;;;;;;;;;;;;;;;;;5059110;28;4543;-61
2023/09/08 13:53:19;;;;;;;;;;;;;;;;;;5038758;28;3475;-60
2023/09/08 13:55:44;;;;;;;;;;;;;;;;;;5055226;28;4970;-61
2023/09/08 13:58:10;;;;;;;;;;;;;;;;;;5059873;28;4954;-65
2023/09/08 14:00:36;;;;;;;;;;;;;;;;;;5062647;28;5106;-61
2023/09/08 14:03:01;;;;;;;;;;;;;;;;;;5057644;28;5588;-61
2023/09/08 14:05:27;;;;;;;;;;;;;;;;;;5059749;28;4708;-62
2023/09/08 14:07:52;;;;;;;;;;;;;;;;;;5059945;28;2995;-62
2023/09/08 14:10:17;;;;;;;;;;;;;;;;;;5063359;28;4481;-61
2023/09/08 14:12:42;;;;;;;;;;;;;;;;;;5066006;28;5051;-62
2023/09/08 14:15:08;;;;;;;;;;;;;;;;;;5046103;28;5087;-62
2023/09/08 14:17:33;;;;;;;;;;;;;;;;;;5047028;28;5146;-61
2023/09/08 14:19:58;;;;;;;;;;;;;;;;;;5063561;28;1965;-62
2023/09/08 14:22:24;;;;;;;;;;;;;;;;;;5062339;28;4863;-61
2023/09/08 14:24:49;;;;;;;;;;;;;;;;;;5065056;28;4986;-62
2023/09/08 14:27:15;;;;;;;;;;;;;;;;;;5064892;28;5035;-62
2023/09/08 14:29:40;;;;;;;;;;;;;;;;;;5065898;28;4877;-62
2023/09/08 14:32:05;;;;;;;;;;;;;;;;;;5060875;28;1243;-62
2023/09/08 14:34:30;;;;;;;;;;;;;;;;;;5069864;28;5130;-62
2023/09/08 14:36:56;;;;;;;;;;;;;;;;;;5080741;28;5132;-62
2023/09/08 14:39:21;;;;;;;;;;;;;;;;;;5073499;28;5016;-62
2023/09/08 14:41:46;;;;;;;;;;;;;;;;;;5064448;28;5184;-62
2023/09/08 14:44:12;;;;;;;;;;;;;;;;;;5069127;28;1088;-61
2023/09/08 14:46:37;;;;;;;;;;;;;;;;;;5062882;28;5059;-62
2023/09/08 14:49:02;;;;;;;;;;;;;;;;;;5060795;28;4991;-62
2023/09/08 14:51:28;;;;;;;;;;;;;;;;;;5075968;28;5087;-62
2023/09/08 14:53:53;;;;;;;;;;;;;;;;;;5089588;28;4777;-62
2023/09/08 14:56:18;;;;;;;;;;;;;;;;;;5088406;28;1286;-62
2023/09/08 14:58:43;;;;;;;;;;;;;;;;;;5074664;28;4787;-62
2023/09/08 15:01:09;;;;;;;;;;;;;;;;;;5072881;28;5139;-62
2023/09/08 15:03:34;;;;;;;;;;;;;;;;;;5076512;28;4745;-62
2023/09/08 15:05:59;;;;;;;;;;;;;;;;;;5069287;28;5093;-62
2023/09/08 15:08:25;;;;;;;;;;;;;;;;;;5063955;28;5059;-61
2023/09/08 15:10:50;;;;;;;;;;;;;;;;;;5086110;28;2507;-62
2023/09/08 15:13:16;;;;;;;;;;;;;;;;;;5070591;28;4616;-61
2023/09/08 15:15:41;;;;;;;;;;;;;;;;;;5067593;28;4958;-62
2023/09/08 15:18:07;;;;;;;;;;;;;;;;;;5062447;28;4711;-62
2023/09/08 15:20:32;;;;;;;;;;;;;;;;;;5064825;28;5044;-61
2023/09/08 15:22:57;;;;;;;;;;;;;;;;;;5060057;28;3435;-61
2023/09/08 15:25:22;;;;;;;;;;;;;;;;;;5060062;28;4600;-63
2023/09/08 15:27:48;;;;;;;;;;;;;;;;;;5068612;28;5354;-61
2023/09/08 15:30:13;;;;;;;;;;;;;;;;;;5062579;28;4995;-61
2023/09/08 15:32:38;;;;;;;;;;;;;;;;;;5065479;28;4640;-61
2023/09/08 15:35:05;;;;;;;;;;;;;;;;;;5061789;28;3320;-63
2023/09/08 15:37:30;;;;;;;;;;;;;;;;;;5048458;28;4993;-60
2023/09/08 15:39:55;;;;;;;;;;;;;;;;;;5063766;28;5057;-62
2023/09/08 15:42:21;;;;;;;;;;;;;;;;;;5066968;28;4935;-61
2023/09/08 15:44:46;;;;;;;;;;;;;;;;;;5064563;28;5134;-62
2023/09/08 15:47:11;;;;;;;;;;;;;;;;;;5066856;28;3284;-62
2023/09/08 15:49:36;;;;;;;;;;;;;;;;;;5066572;28;5331;-63
2023/09/08 15:52:02;;;;;;;;;;;;;;;;;;5066626;28;5350;-62
2023/09/08 15:54:27;;;;;;;;;;;;;;;;;;5059735;28;4923;-61
2023/09/08 15:56:52;;;;;;;;;;;;;;;;;;5067312;28;5008;-62
2023/09/08 15:59:17;;;;;;;;;;;;;;;;;;5068916;28;3304;-63
2023/09/08 16:01:43;;;;;;;;;;;;;;;;;;5062171;28;5018;-59
2023/09/08 16:04:09;;;;;;;;;;;;;;;;;;5061212;28;4528;-59
2023/09/08 16:06:37;;;;;;;;;;;;;;;;;;5070524;28;4537;-61
2023/09/08 16:09:05;;;;;;;;;;;;;;;;;;5061242;28;4944;-63
2023/09/08 16:11:31;;;;;;;;;;;;;;;;;;5051996;28;4527;-60
2023/09/08 16:13:56;;;;;;;;;;;;;;;;;;5071202;28;3295;-62
2023/09/08 16:16:21;;;;;;;;;;;;;;;;;;5066051;28;4470;-60
2023/09/08 16:18:47;;;;;;;;;;;;;;;;;;5061392;28;4797;-59
2023/09/08 16:21:12;;;;;;;;;;;;;;;;;;5052557;28;5044;-60
2023/09/08 16:23:37;;;;;;;;;;;;;;;;;;5064235;28;5162;-60
2023/09/08 16:26:02;;;;;;;;;;;;;;;;;;5062100;28;3181;-59
2023/09/08 16:28:28;;;;;;;;;;;;;;;;;;5064968;28;5183;-58
2023/09/08 16:30:53;;;;;;;;;;;;;;;;;;5064159;28;5106;-59
2023/09/08 16:33:18;;;;;;;;;;;;;;;;;;5064279;28;4668;-58
2023/09/08 16:35:43;;;;;;;;;;;;;;;;;;5062613;28;4692;-65
2023/09/08 16:38:09;;;;;;;;;;;;;;;;;;5063489;28;3195;-61
2023/09/08 16:40:35;;;;;;;;;;;;;;;;;;5064436;28;5083;-59
2023/09/08 16:43:02;;;;;;;;;;;;;;;;;;5064043;28;4550;-60
2023/09/08 16:45:28;;;;;;;;;;;;;;;;;;5066086;28;4612;-60
2023/09/08 16:47:53;;;;;;;;;;;;;;;;;;5062501;28;4780;-59
2023/09/08 16:50:18;;;;;;;;;;;;;;;;;;5047463;28;3477;-60
2023/09/08 16:52:44;;;;;;;;;;;;;;;;;;5059335;28;5068;-62